Time;durP1;ratioP1;P1;durP2;ratioP2;P2;SDS_P1;SDS_P2;PMS_P1;PMS_P2;Temp;Humidity;BMP_temperature;BMP_pressure;BME280_temperature;BME280_humidity;BME280_pressure;Samples;Min_cycle;Max_cycle;Signal;HPM_P1;HPM_P2
2023/01/30 00:01:31;;;;;;;61.05;39.40;;;5.80;99.90;;;;;;5090958;28;20490;-70
2023/01/30 00:03:58;;;;;;;56.50;38.63;;;5.80;99.90;;;;;;5106944;28;20048;-69
2023/01/30 00:06:24;;;;;;;54.80;36.03;;;5.80;99.90;;;;;;5091650;28;20042;-70
2023/01/30 00:08:50;;;;;;;54.92;37.22;;;5.80;99.90;;;;;;5091941;28;20066;-70
2023/01/30 00:11:18;;;;;;;57.25;36.80;;;5.80;99.90;;;;;;5095893;28;20036;-69
2023/01/30 00:13:44;;;;;;;57.33;36.60;;;5.80;99.90;;;;;;5103220;28;20044;-69
2023/01/30 00:16:10;;;;;;;51.00;36.03;;;5.90;99.90;;;;;;5102068;28;20061;-70
2023/01/30 00:18:38;;;;;;;49.83;35.58;;;5.90;99.90;;;;;;5103390;28;20043;-70
2023/01/30 00:21:05;;;;;;;57.42;37.80;;;5.90;99.90;;;;;;5098271;28;20886;-70
2023/01/30 00:23:33;;;;;;;59.88;36.80;;;5.90;99.90;;;;;;5084602;28;20122;-70
2023/01/30 00:25:58;;;;;;;51.92;33.70;;;5.90;99.90;;;;;;5093190;28;20093;-70
2023/01/30 00:28:24;;;;;;;52.22;35.65;;;6.00;99.90;;;;;;5071995;28;20040;-69
2023/01/30 00:30:51;;;;;;;54.13;34.28;;;6.00;99.90;;;;;;5094688;28;20531;-70
2023/01/30 00:33:18;;;;;;;58.53;34.63;;;6.00;99.90;;;;;;5102317;28;20450;-69
2023/01/30 00:35:47;;;;;;;50.63;33.33;;;6.00;99.90;;;;;;5107546;28;20059;-69
2023/01/30 00:38:13;;;;;;;55.58;35.42;;;6.10;99.90;;;;;;5101239;28;20040;-69
2023/01/30 00:40:38;;;;;;;54.22;33.10;;;6.10;99.90;;;;;;5096655;28;20059;-69
2023/01/30 00:48:34;;;;;;;47.10;30.88;;;6.20;99.90;;;;;;5096796;28;20063;-69
2023/01/30 00:51:00;;;;;;;46.28;31.45;;;6.20;99.90;;;;;;5091337;28;20763;-70
2023/01/30 00:53:26;;;;;;;43.00;30.55;;;6.20;99.90;;;;;;5105094;28;20416;-70
2023/01/30 00:55:53;;;;;;;42.53;31.10;;;6.30;99.90;;;;;;5099600;28;20039;-70
2023/01/30 00:58:19;;;;;;;49.78;30.00;;;6.30;99.90;;;;;;5096319;28;20047;-70
2023/01/30 01:00:45;;;;;;;47.15;28.70;;;6.30;99.90;;;;;;5101893;28;20043;-70
2023/01/30 01:03:10;;;;;;;52.45;29.83;;;6.30;99.90;;;;;;5088280;28;20044;-69
2023/01/30 01:05:36;;;;;;;45.05;28.42;;;6.40;99.90;;;;;;5097408;28;20124;-69
2023/01/30 01:08:03;;;;;;;53.38;30.17;;;6.40;99.90;;;;;;5104154;28;20039;-70
2023/01/30 01:10:28;;;;;;;43.58;28.33;;;6.40;99.90;;;;;;5107375;28;20069;-70
2023/01/30 01:12:54;;;;;;;54.72;31.27;;;6.40;99.90;;;;;;5102111;28;20040;-70
2023/01/30 01:15:21;;;;;;;57.45;31.02;;;6.40;99.90;;;;;;5101152;28;20670;-69
2023/01/30 01:17:47;;;;;;;53.40;30.85;;;6.40;99.90;;;;;;5092011;28;20046;-69
2023/01/30 01:20:14;;;;;;;44.95;29.48;;;6.40;99.90;;;;;;5091307;28;20047;-69
2023/01/30 01:22:40;;;;;;;60.33;32.10;;;6.40;99.90;;;;;;5098995;28;20038;-70
2023/01/30 01:25:06;;;;;;;38.97;27.80;;;6.40;99.90;;;;;;5105980;28;20126;-70
2023/01/30 01:27:32;;;;;;;39.53;28.42;;;6.40;99.90;;;;;;5100646;28;20047;-70
2023/01/30 01:29:57;;;;;;;44.55;28.55;;;6.30;99.90;;;;;;5098112;28;20059;-70
2023/01/30 01:32:23;;;;;;;44.92;27.88;;;6.30;99.90;;;;;;5098378;28;20467;-70
2023/01/30 01:34:48;;;;;;;45.22;26.83;;;6.30;99.90;;;;;;5092704;28;20556;-70
2023/01/30 01:37:14;;;;;;;35.90;22.98;;;6.30;99.90;;;;;;5098415;28;20824;-70
2023/01/30 01:42:27;;;;;;;30.60;20.30;;;6.30;99.90;;;;;;5104702;28;20055;-70
2023/01/30 01:45:11;;;;;;;27.15;17.77;;;6.30;99.90;;;;;;5099185;28;20115;-70
2023/01/30 01:47:46;;;;;;;27.88;16.90;;;6.30;99.90;;;;;;5086312;28;20070;-71
2023/01/30 01:50:19;;;;;;;30.23;18.35;;;6.40;99.90;;;;;;5090183;28;20451;-71
2023/01/30 01:52:48;;;;;;;21.60;16.35;;;6.40;99.90;;;;;;5101316;28;20043;-71
2023/01/30 01:55:14;;;;;;;30.02;16.83;;;6.40;99.90;;;;;;5098942;28;20086;-71
2023/01/30 01:57:52;;;;;;;23.60;16.52;;;6.40;99.90;;;;;;5100363;28;20083;-71
2023/01/30 02:00:20;;;;;;;34.90;17.13;;;6.40;99.90;;;;;;5110384;28;20171;-71
2023/01/30 02:02:56;;;;;;;19.85;14.57;;;6.40;99.90;;;;;;5104821;28;20042;-71
2023/01/30 02:05:24;;;;;;;23.98;15.57;;;6.40;99.90;;;;;;5101841;28;20556;-72
2023/01/30 02:08:06;;;;;;;21.00;14.07;;;6.40;99.90;;;;;;5101830;28;20035;-71
2023/01/30 02:11:31;;;;;;;22.20;14.85;;;6.40;99.90;;;;;;5090924;28;20044;-71
2023/01/30 02:13:58;;;;;;;24.98;14.07;;;6.40;99.90;;;;;;5026867;28;20067;-71
2023/01/30 02:16:24;;;;;;;16.52;12.98;;;6.40;99.90;;;;;;5026867;28;20048;-71
2023/01/30 02:18:50;;;;;;;20.60;12.52;;;6.40;99.90;;;;;;5065236;28;20483;-71
2023/01/30 02:21:46;;;;;;;25.88;12.23;;;6.40;99.90;;;;;;5091217;28;20085;-71
2023/01/30 02:24:39;;;;;;;15.95;11.55;;;6.40;99.90;;;;;;5091308;28;20102;-71
2023/01/30 02:27:15;;;;;;;19.35;10.90;;;6.40;99.90;;;;;;5099880;28;20052;-71
2023/01/30 02:30:18;;;;;;;16.25;10.15;;;6.40;99.90;;;;;;5094017;28;20047;-71
2023/01/30 02:33:06;;;;;;;12.77;8.48;;;6.50;99.90;;;;;;5106446;28;20043;-71
2023/01/30 02:35:48;;;;;;;17.55;9.90;;;6.50;99.90;;;;;;5109133;28;20044;-70
2023/01/30 02:38:34;;;;;;;18.65;8.65;;;6.50;99.90;;;;;;5103564;28;20370;-70
2023/01/30 02:41:45;;;;;;;13.43;8.20;;;6.50;99.90;;;;;;5091130;28;20196;-70
2023/01/30 02:44:24;;;;;;;10.30;7.05;;;6.50;99.90;;;;;;5099883;28;20059;-71
2023/01/30 02:46:52;;;;;;;11.57;7.10;;;6.50;99.90;;;;;;5103210;28;20504;-71
2023/01/30 02:49:41;;;;;;;16.80;7.45;;;6.50;99.90;;;;;;5105108;28;20052;-71
2023/01/30 02:52:07;;;;;;;;;;;6.60;99.90;;;;;;5107411;28;20165;-70
2023/01/30 02:54:33;;;;;;;14.45;8.27;;;6.60;99.90;;;;;;5094974;28;19930;-70
2023/01/30 02:56:59;;;;;;;13.30;7.60;;;6.60;99.90;;;;;;5126235;27;20044;-71
2023/01/30 02:59:47;;;;;;;18.88;8.85;;;6.60;99.90;;;;;;5105965;28;20043;-71
2023/01/30 03:02:39;;;;;;;18.95;9.05;;;6.60;99.90;;;;;;5082901;28;20087;-71
2023/01/30 03:05:34;;;;;;;17.20;9.07;;;6.60;99.90;;;;;;5104437;28;20043;-71
2023/01/30 03:08:24;;;;;;;22.95;9.55;;;6.60;99.90;;;;;;5108004;28;20393;-71
2023/01/30 03:11:06;;;;;;;23.90;9.32;;;6.60;99.90;;;;;;5115669;27;20058;-71
2023/01/30 03:13:44;;;;;;;24.63;10.60;;;6.70;99.90;;;;;;5102191;28;20097;-71
2023/01/30 03:16:17;;;;;;;17.05;9.75;;;6.60;99.90;;;;;;5098058;28;20126;-71
2023/01/30 03:18:44;;;;;;;17.50;9.65;;;6.70;99.90;;;;;;5095960;28;20062;-71
2023/01/30 03:21:11;;;;;;;22.13;10.00;;;6.70;99.90;;;;;;5104782;28;20055;-71
2023/01/30 03:23:37;;;;;;;32.40;10.68;;;6.70;99.90;;;;;;5094205;28;20048;-71
2023/01/30 03:26:10;;;;;;;23.33;11.38;;;6.70;99.90;;;;;;5100584;28;20036;-71
2023/01/30 03:28:36;;;;;;;30.75;11.48;;;6.70;99.90;;;;;;5099703;28;20090;-71
2023/01/30 03:31:02;;;;;;;29.95;10.88;;;6.70;99.90;;;;;;5105968;28;20044;-71
2023/01/30 03:33:27;;;;;;;26.73;10.75;;;6.70;99.90;;;;;;5106220;28;20047;-71
2023/01/30 03:35:54;;;;;;;30.17;10.13;;;6.80;99.90;;;;;;5104304;28;20059;-71
2023/01/30 03:38:20;;;;;;;28.13;10.70;;;6.80;99.90;;;;;;5093403;28;20170;-71
2023/01/30 03:40:46;;;;;;;24.52;10.68;;;6.80;99.90;;;;;;5106011;28;20040;-71
2023/01/30 03:43:12;;;;;;;29.13;9.82;;;6.80;99.90;;;;;;5106436;28;20044;-71
2023/01/30 03:45:38;;;;;;;23.48;10.82;;;6.80;99.90;;;;;;5094761;28;20048;-71
2023/01/30 03:48:04;;;;;;;30.23;11.02;;;6.80;99.90;;;;;;5100417;28;20052;-71
2023/01/30 03:50:30;;;;;;;27.42;9.80;;;6.70;99.90;;;;;;5101274;28;20039;-71
2023/01/30 03:52:56;;;;;;;22.80;9.45;;;6.70;99.90;;;;;;5105807;28;20041;-71
2023/01/30 03:55:21;;;;;;;26.83;10.27;;;6.70;99.90;;;;;;5095466;28;20042;-71
2023/01/30 03:57:47;;;;;;;34.42;9.73;;;6.70;99.90;;;;;;5094109;28;20040;-71
2023/01/30 04:00:13;;;;;;;25.00;8.77;;;6.70;99.90;;;;;;5105087;28;20059;-71
2023/01/30 04:02:39;;;;;;;33.53;9.10;;;6.70;99.90;;;;;;5100165;28;20052;-71
2023/01/30 04:05:05;;;;;;;22.17;8.50;;;6.70;99.90;;;;;;5118797;27;20509;-71
2023/01/30 04:07:31;;;;;;;32.55;8.05;;;6.70;99.90;;;;;;5088119;28;20048;-71
2023/01/30 04:09:56;;;;;;;21.67;8.65;;;6.70;99.90;;;;;;5092929;28;20394;-70
2023/01/30 04:12:22;;;;;;;34.17;9.93;;;6.70;99.90;;;;;;5092712;28;20077;-71
2023/01/30 04:14:48;;;;;;;30.98;8.90;;;6.70;99.90;;;;;;5103773;28;20454;-70
2023/01/30 04:17:13;;;;;;;22.02;9.57;;;6.70;99.90;;;;;;5095812;28;20043;-71
2023/01/30 04:19:39;;;;;;;27.95;10.02;;;6.60;99.90;;;;;;5105538;28;20043;-71
2023/01/30 04:22:05;;;;;;;26.20;9.48;;;6.60;99.90;;;;;;5089065;28;20050;-70
2023/01/30 04:24:30;;;;;;;31.58;9.50;;;6.60;99.90;;;;;;5087961;28;20131;-71
2023/01/30 04:26:57;;;;;;;23.02;8.35;;;6.50;99.90;;;;;;5091403;28;20086;-70
2023/01/30 04:29:23;;;;;;;18.70;8.82;;;6.60;99.90;;;;;;5095846;28;20047;-71
2023/01/30 04:31:48;;;;;;;36.65;9.85;;;6.50;99.90;;;;;;5091232;28;20051;-71
2023/01/30 04:34:14;;;;;;;26.50;8.45;;;6.40;99.90;;;;;;5102936;28;20539;-71
2023/01/30 04:36:40;;;;;;;38.15;10.02;;;6.40;99.90;;;;;;5106893;28;20063;-71
2023/01/30 04:39:06;;;;;;;18.38;8.50;;;6.30;99.90;;;;;;5101486;28;20051;-71
2023/01/30 04:41:31;;;;;;;31.67;9.45;;;6.30;99.90;;;;;;5095261;28;20081;-71
2023/01/30 04:43:57;;;;;;;28.85;9.32;;;6.30;99.90;;;;;;5104494;28;20062;-71
2023/01/30 04:46:23;;;;;;;28.58;10.15;;;6.30;99.90;;;;;;5099363;28;20083;-70
2023/01/30 04:48:48;;;;;;;24.55;8.80;;;6.20;99.90;;;;;;5103263;28;20047;-70
2023/01/30 04:51:14;;;;;;;33.92;10.02;;;6.20;99.90;;;;;;5106558;28;20063;-70
2023/01/30 04:53:39;;;;;;;26.13;9.05;;;6.20;99.90;;;;;;5094624;28;20043;-70
2023/01/30 04:56:06;;;;;;;42.88;9.10;;;6.20;99.90;;;;;;5090918;28;20503;-71
2023/01/30 04:58:31;;;;;;;36.42;9.50;;;6.20;99.90;;;;;;5100096;28;20396;-70
2023/01/30 05:01:15;;;;;;;23.38;9.25;;;6.20;99.90;;;;;;5094077;28;20123;-71
2023/01/30 05:03:41;;;;;;;26.70;7.93;;;6.10;99.90;;;;;;5091210;28;20047;-71
2023/01/30 05:06:06;;;;;;;36.08;8.35;;;6.10;99.90;;;;;;5102788;28;20047;-71
2023/01/30 05:08:32;;;;;;;26.52;7.90;;;6.00;99.90;;;;;;5098417;28;20043;-70
2023/01/30 05:10:58;;;;;;;38.63;9.68;;;6.00;99.90;;;;;;5102789;28;20051;-71
2023/01/30 05:13:23;;;;;;;22.35;9.52;;;6.00;99.90;;;;;;5107243;28;20043;-70
2023/01/30 05:15:49;;;;;;;26.88;8.15;;;5.90;99.90;;;;;;5099016;28;20107;-70
2023/01/30 05:18:15;;;;;;;35.25;9.90;;;5.90;99.90;;;;;;5108196;28;20055;-71
2023/01/30 05:20:40;;;;;;;21.35;8.75;;;5.90;99.90;;;;;;5102518;28;20040;-71
2023/01/30 05:23:07;;;;;;;40.72;8.98;;;5.90;99.90;;;;;;5095798;28;20043;-71
2023/01/30 05:25:33;;;;;;;27.77;8.60;;;5.80;99.90;;;;;;5112387;27;21799;-70
2023/01/30 05:27:59;;;;;;;24.52;7.97;;;5.80;99.90;;;;;;5099533;28;20043;-70
2023/01/30 05:30:24;;;;;;;30.27;9.07;;;5.80;99.90;;;;;;5095847;28;20043;-71
2023/01/30 05:32:50;;;;;;;32.65;9.48;;;5.70;99.90;;;;;;5097655;28;20035;-70
2023/01/30 05:35:15;;;;;;;31.73;7.45;;;5.70;99.90;;;;;;5103006;28;20697;-70
2023/01/30 05:37:42;;;;;;;26.80;8.50;;;5.70;99.90;;;;;;5117663;27;20086;-70
2023/01/30 05:40:08;;;;;;;31.17;11.55;;;5.70;99.90;;;;;;5109481;28;20048;-69
2023/01/30 05:42:34;;;;;;;31.42;9.27;;;5.60;99.90;;;;;;5111241;28;20155;-71
2023/01/30 05:45:00;;;;;;;31.10;8.80;;;5.60;99.90;;;;;;5109019;28;20481;-70
2023/01/30 05:47:25;;;;;;;36.10;10.13;;;5.60;99.90;;;;;;5109038;27;20052;-71
2023/01/30 05:49:51;;;;;;;37.38;9.20;;;5.60;99.90;;;;;;5106568;28;20093;-71
2023/01/30 05:52:17;;;;;;;33.55;10.13;;;5.60;99.90;;;;;;5108068;28;20480;-70
2023/01/30 05:54:42;;;;;;;24.92;8.20;;;5.50;99.90;;;;;;5103707;28;20043;-70
2023/01/30 05:57:08;;;;;;;38.17;8.88;;;5.60;99.90;;;;;;5107814;28;20055;-71
2023/01/30 05:59:34;;;;;;;43.55;10.05;;;5.50;99.90;;;;;;5124149;27;20052;-70
2023/01/30 06:01:59;;;;;;;23.15;8.93;;;5.50;99.90;;;;;;5105233;28;20040;-71
2023/01/30 06:04:25;;;;;;;27.58;7.90;;;5.50;99.90;;;;;;5097086;28;20051;-71
2023/01/30 06:06:51;;;;;;;26.20;9.15;;;5.40;99.90;;;;;;5093463;28;20522;-71
2023/01/30 06:09:16;;;;;;;23.10;8.20;;;5.40;99.90;;;;;;5103588;28;20043;-70
2023/01/30 06:11:42;;;;;;;30.38;9.23;;;5.40;99.90;;;;;;5099720;28;20097;-70
2023/01/30 06:14:08;;;;;;;22.30;8.32;;;5.40;99.90;;;;;;5095915;28;20052;-71
2023/01/30 06:16:33;;;;;;;30.30;8.35;;;5.40;99.90;;;;;;5098317;28;20036;-71
2023/01/30 06:18:59;;;;;;;32.22;7.88;;;5.30;99.90;;;;;;5105384;28;20045;-71
2023/01/30 06:21:24;;;;;;;30.95;8.13;;;5.30;99.90;;;;;;5109824;28;20096;-71
2023/01/30 06:23:50;;;;;;;36.17;8.95;;;5.30;99.90;;;;;;5123454;27;20044;-71
2023/01/30 06:26:16;;;;;;;33.65;8.38;;;5.30;99.90;;;;;;5100356;28;20043;-71
2023/01/30 06:28:41;;;;;;;32.08;8.68;;;5.30;99.90;;;;;;5090911;28;20555;-71
2023/01/30 06:31:07;;;;;;;31.90;8.07;;;5.30;99.90;;;;;;5098732;28;20052;-70
2023/01/30 06:33:34;;;;;;;38.83;9.18;;;5.30;99.90;;;;;;5103360;28;20381;-70
2023/01/30 06:35:59;;;;;;;27.95;7.43;;;5.20;99.90;;;;;;5120186;27;20056;-70
2023/01/30 06:38:25;;;;;;;37.67;8.75;;;5.30;99.90;;;;;;5096449;28;20054;-70
2023/01/30 06:40:50;;;;;;;33.88;8.40;;;5.30;99.90;;;;;;5105772;28;20035;-71
2023/01/30 06:43:16;;;;;;;41.47;9.15;;;5.30;99.90;;;;;;5103520;28;20047;-71
2023/01/30 06:45:42;;;;;;;35.08;8.50;;;5.30;99.90;;;;;;5094964;28;20119;-71
2023/01/30 06:48:08;;;;;;;48.67;8.25;;;5.30;99.90;;;;;;5093937;28;20077;-70
2023/01/30 06:50:34;;;;;;;25.95;8.30;;;5.30;99.90;;;;;;5098740;28;20201;-70
2023/01/30 06:53:05;;;;;;;37.58;8.40;;;5.30;99.90;;;;;;5105861;28;20047;-71
2023/01/30 06:55:35;;;;;;;33.25;8.50;;;5.30;99.90;;;;;;5103759;28;20055;-71
2023/01/30 06:58:10;;;;;;;21.30;7.50;;;5.30;99.90;;;;;;5088125;28;20052;-71
2023/01/30 07:00:38;;;;;;;32.67;8.25;;;5.30;99.90;;;;;;5100891;28;20036;-71
2023/01/30 07:03:04;;;;;;;34.58;8.85;;;5.30;99.90;;;;;;5090564;28;20123;-71
2023/01/30 07:05:30;;;;;;;23.02;7.75;;;5.30;99.90;;;;;;5097057;28;20119;-71
2023/01/30 07:07:55;;;;;;;38.60;7.93;;;5.30;99.90;;;;;;5104360;28;20097;-70
2023/01/30 07:10:22;;;;;;;38.38;8.40;;;5.30;99.90;;;;;;5101754;28;20047;-71
2023/01/30 07:12:48;;;;;;;32.97;9.38;;;5.30;99.90;;;;;;5102345;28;20051;-71
2023/01/30 07:15:14;;;;;;;32.65;8.23;;;5.30;99.90;;;;;;5112883;27;20044;-70
2023/01/30 07:17:40;;;;;;;22.88;6.82;;;5.30;99.90;;;;;;5108714;28;20386;-71
2023/01/30 07:20:08;;;;;;;34.83;7.20;;;5.40;99.90;;;;;;5104642;27;20055;-71
2023/01/30 07:22:34;;;;;;;27.63;7.28;;;5.40;99.90;;;;;;5100533;28;20077;-71
2023/01/30 07:25:00;;;;;;;36.78;7.68;;;5.40;99.90;;;;;;5105437;28;20169;-70
2023/01/30 07:27:25;;;;;;;43.38;8.50;;;5.40;99.90;;;;;;5106336;28;20039;-71
2023/01/30 07:29:51;;;;;;;36.97;8.90;;;5.40;99.90;;;;;;5100253;28;20062;-71
2023/01/30 07:32:18;;;;;;;36.00;8.02;;;5.50;99.90;;;;;;5086905;28;20050;-71
2023/01/30 07:34:45;;;;;;;30.08;8.25;;;5.50;99.90;;;;;;5092652;28;20062;-71
2023/01/30 07:37:11;;;;;;;40.67;9.38;;;5.50;99.90;;;;;;5096946;28;20172;-71
2023/01/30 07:39:36;;;;;;;33.55;9.52;;;5.40;99.90;;;;;;5098612;28;20546;-71
2023/01/30 07:42:02;;;;;;;29.60;7.00;;;5.50;99.90;;;;;;5092658;28;20488;-71
2023/01/30 07:44:28;;;;;;;43.17;7.63;;;5.50;99.90;;;;;;5096972;28;20050;-71
2023/01/30 07:46:54;;;;;;;32.25;8.73;;;5.40;99.90;;;;;;5109310;28;20527;-71
2023/01/30 07:49:20;;;;;;;27.50;8.40;;;5.50;99.90;;;;;;5104145;28;20044;-71
2023/01/30 07:51:45;;;;;;;32.38;8.63;;;5.50;99.90;;;;;;5087005;28;20043;-71
2023/01/30 07:54:11;;;;;;;39.67;8.73;;;5.50;99.90;;;;;;5102342;28;20043;-70
2023/01/30 07:56:38;;;;;;;33.58;8.70;;;5.50;99.90;;;;;;5092046;28;20648;-71
2023/01/30 07:59:04;;;;;;;36.35;8.25;;;5.50;99.90;;;;;;5100329;28;20050;-71
2023/01/30 08:01:31;;;;;;;36.97;8.88;;;5.50;99.90;;;;;;5104594;28;20054;-71
2023/01/30 08:03:57;;;;;;;32.25;9.35;;;5.50;99.90;;;;;;5108987;28;20043;-71
2023/01/30 08:06:22;;;;;;;31.27;7.07;;;5.50;99.90;;;;;;5101681;28;20092;-71
2023/01/30 08:08:48;;;;;;;26.70;7.97;;;5.60;99.90;;;;;;5099737;28;20040;-71
2023/01/30 08:11:14;;;;;;;36.28;9.13;;;5.60;99.90;;;;;;5121264;27;20528;-72
2023/01/30 08:13:40;;;;;;;29.85;8.35;;;5.60;99.90;;;;;;5105168;28;20131;-72
2023/01/30 08:16:06;;;;;;;37.47;9.18;;;5.60;99.90;;;;;;5089792;28;20501;-72
2023/01/30 08:18:33;;;;;;;24.80;6.75;;;5.60;99.90;;;;;;5103029;28;20039;-72
2023/01/30 08:21:01;;;;;;;36.72;8.23;;;5.70;99.90;;;;;;5102705;28;20039;-72
2023/01/30 08:23:27;;;;;;;;;;;5.70;99.90;;;;;;5101517;28;20143;-72
2023/01/30 08:25:54;;;;;;;31.90;7.75;;;5.70;99.90;;;;;;5103674;28;20010;-72
2023/01/30 08:28:20;;;;;;;30.52;8.63;;;5.70;99.90;;;;;;5093299;28;20047;-72
2023/01/30 08:30:46;;;;;;;31.17;8.00;;;5.80;99.90;;;;;;5090425;28;20089;-72
2023/01/30 08:33:11;;;;;;;28.90;7.90;;;5.80;99.90;;;;;;5102739;28;20061;-72
2023/01/30 08:35:38;;;;;;;26.92;8.85;;;5.80;99.90;;;;;;5102984;28;20505;-72
2023/01/30 08:38:10;;;;;;;30.02;9.68;;;5.90;99.90;;;;;;5098222;28;20090;-72
2023/01/30 08:40:36;;;;;;;40.00;8.45;;;5.90;99.90;;;;;;5103441;28;20119;-72
2023/01/30 08:43:02;;;;;;;43.33;9.38;;;5.90;99.90;;;;;;5101757;28;20059;-72
2023/01/30 08:45:28;;;;;;;24.60;7.05;;;5.90;99.90;;;;;;5097192;28;20377;-72
2023/01/30 08:47:58;;;;;;;36.33;9.25;;;6.00;99.90;;;;;;5088584;28;20040;-72
2023/01/30 08:50:23;;;;;;;36.78;8.85;;;6.00;99.90;;;;;;5103414;28;20075;-72
2023/01/30 08:52:50;;;;;;;41.08;8.88;;;6.00;99.90;;;;;;5098794;28;20944;-71
2023/01/30 08:55:16;;;;;;;32.03;9.00;;;6.00;99.90;;;;;;5095502;28;20043;-71
2023/01/30 08:57:42;;;;;;;26.20;8.25;;;6.10;99.90;;;;;;5102820;28;20069;-71
2023/01/30 09:00:10;;;;;;;26.73;7.10;;;6.00;99.90;;;;;;5108770;28;20504;-71
2023/01/30 09:02:37;;;;;;;32.13;9.98;;;6.00;99.90;;;;;;5095299;28;20143;-71
2023/01/30 09:05:03;;;;;;;35.80;9.60;;;6.10;99.90;;;;;;5091445;28;20119;-72
2023/01/30 09:07:29;;;;;;;28.10;7.53;;;6.10;99.90;;;;;;5099139;28;20532;-71
2023/01/30 09:09:55;;;;;;;37.50;9.27;;;6.10;99.90;;;;;;5097153;28;20148;-71
2023/01/30 09:12:21;;;;;;;34.85;10.10;;;6.20;99.90;;;;;;5100080;28;20508;-72
2023/01/30 09:14:46;;;;;;;28.67;8.23;;;6.20;99.90;;;;;;5096306;28;20047;-71
2023/01/30 09:17:12;;;;;;;40.70;9.63;;;6.20;99.90;;;;;;5087923;28;20109;-71
2023/01/30 09:19:38;;;;;;;44.13;9.50;;;6.30;99.90;;;;;;5088290;28;20055;-71
2023/01/30 09:22:06;;;;;;;32.08;8.93;;;6.30;99.90;;;;;;5091001;28;20055;-72
2023/01/30 09:24:32;;;;;;;34.20;8.35;;;6.30;99.90;;;;;;5105375;28;20125;-72
2023/01/30 09:26:58;;;;;;;33.13;7.75;;;6.30;99.90;;;;;;5098992;28;20035;-72
2023/01/30 09:29:25;;;;;;;37.88;9.07;;;6.40;99.90;;;;;;5097736;28;20390;-72
2023/01/30 09:31:51;;;;;;;26.63;8.95;;;6.40;99.90;;;;;;5098180;28;20480;-72
2023/01/30 09:34:17;;;;;;;27.65;8.88;;;6.40;99.90;;;;;;5101219;28;20048;-72
2023/01/30 09:36:43;;;;;;;39.30;9.60;;;6.40;99.90;;;;;;5097937;28;20058;-73
2023/01/30 09:39:09;;;;;;;60.63;11.88;;;6.50;99.90;;;;;;5100515;28;20051;-70
2023/01/30 09:42:08;;;;;;;32.33;8.43;;;6.50;99.90;;;;;;5092836;28;20050;-70
2023/01/30 09:44:56;;;;;;;26.63;8.25;;;6.50;99.90;;;;;;5105865;28;20119;-70
2023/01/30 09:47:39;;;;;;;30.70;7.25;;;6.60;99.90;;;;;;5099810;28;20044;-70
2023/01/30 09:50:16;;;;;;;31.42;7.88;;;6.60;99.90;;;;;;5094815;28;20104;-70
2023/01/30 09:53:09;;;;;;;38.78;9.15;;;6.60;99.90;;;;;;5106586;28;20043;-70
2023/01/30 09:55:38;;;;;;;29.10;7.85;;;6.70;99.90;;;;;;5095606;28;20052;-70
2023/01/30 09:58:04;;;;;;;33.00;7.95;;;6.80;99.90;;;;;;5095448;28;20039;-70
2023/01/30 10:00:40;;;;;;;27.83;7.40;;;6.90;99.90;;;;;;5102198;28;20393;-71
2023/01/30 10:03:20;;;;;;;32.30;7.95;;;6.90;99.90;;;;;;5103835;28;20062;-70
2023/01/30 10:06:05;;;;;;;38.65;8.60;;;6.90;99.90;;;;;;5093864;28;20044;-70
2023/01/30 10:09:19;;;;;;;20.60;6.20;;;6.90;99.90;;;;;;5091463;28;20047;-70
2023/01/30 10:12:13;;;;;;;21.38;6.32;;;6.70;99.90;;;;;;5097857;28;20043;-70
2023/01/30 10:14:59;;;;;;;36.33;7.28;;;6.60;99.90;;;;;;5055719;28;20043;-70
2023/01/30 10:17:44;;;;;;;38.08;8.85;;;6.50;99.90;;;;;;5093358;28;20122;-70
2023/01/30 10:20:12;;;;;;;34.13;9.25;;;6.50;99.90;;;;;;5105817;28;20776;-70
2023/01/30 10:23:06;;;;;;;38.80;8.50;;;6.40;99.90;;;;;;5098899;28;20040;-70
2023/01/30 10:25:40;;;;;;;38.35;8.73;;;6.50;99.90;;;;;;5093343;28;20041;-70
2023/01/30 10:28:21;;;;;;;32.38;9.32;;;6.50;99.90;;;;;;5107181;28;20130;-70
2023/01/30 10:30:50;;;;;;;32.50;7.50;;;6.50;99.90;;;;;;5098432;28;20512;-70
2023/01/30 10:33:33;;;;;;;37.75;7.45;;;6.60;99.90;;;;;;5096298;28;20044;-70
2023/01/30 10:36:06;;;;;;;41.15;8.32;;;6.60;99.90;;;;;;5100547;28;20068;-70
2023/01/30 10:38:46;;;;;;;36.92;9.40;;;6.70;99.90;;;;;;5102033;28;20071;-70
2023/01/30 10:41:35;;;;;;;32.08;8.35;;;6.70;99.90;;;;;;5104090;28;20126;-70
2023/01/30 10:44:12;;;;;;;34.42;9.07;;;6.70;99.90;;;;;;5072309;28;20093;-70
2023/01/30 10:47:11;;;;;;;28.00;8.02;;;6.80;99.90;;;;;;5101117;28;20200;-70
2023/01/30 10:49:45;;;;;;;27.50;8.50;;;6.80;99.90;;;;;;5100983;28;20044;-71
2023/01/30 10:52:45;;;;;;;47.40;11.15;;;6.80;99.90;;;;;;5094925;28;20098;-70
2023/01/30 10:55:18;;;;;;;41.42;9.98;;;6.70;99.90;;;;;;5104450;28;20047;-70
2023/01/30 10:58:25;;;;;;;31.45;7.88;;;6.50;99.90;;;;;;5107626;28;20508;-67
2023/01/30 11:01:04;;;;;;;25.40;6.90;;;6.30;99.90;;;;;;5085732;28;20052;-67
2023/01/30 11:03:37;;;;;;;23.65;5.25;;;6.20;99.90;;;;;;5096953;28;20036;-68
2023/01/30 11:06:23;;;;;;;26.92;6.32;;;6.10;99.90;;;;;;5102546;28;20053;-68
2023/01/30 11:08:50;;;;;;;12.48;3.63;;;6.00;99.90;;;;;;5098028;28;20054;-68
2023/01/30 11:11:26;;;;;;;19.55;5.63;;;6.00;99.90;;;;;;5104966;28;20043;-68
2023/01/30 11:14:07;;;;;;;19.55;4.95;;;6.10;99.90;;;;;;5083471;28;20055;-68
2023/01/30 11:16:43;;;;;;;18.83;4.70;;;6.10;99.90;;;;;;5107394;28;20054;-68
2023/01/30 11:19:09;;;;;;;27.10;5.68;;;6.20;99.90;;;;;;5096915;28;20177;-68
2023/01/30 11:21:35;;;;;;;19.75;5.28;;;6.30;99.90;;;;;;5106462;28;20070;-68
2023/01/30 11:24:31;;;;;;;23.05;5.63;;;6.40;99.90;;;;;;5089201;28;20249;-68
2023/01/30 11:27:22;;;;;;;20.63;5.60;;;6.50;99.90;;;;;;5103332;28;20044;-68
2023/01/30 11:29:51;;;;;;;13.93;5.00;;;6.50;99.90;;;;;;5106549;28;20154;-68
2023/01/30 11:32:27;;;;;;;25.98;5.60;;;6.60;99.90;;;;;;5101064;28;20062;-68
2023/01/30 11:35:22;;;;;;;30.20;6.68;;;6.70;99.90;;;;;;5101088;28;20052;-68
2023/01/30 11:37:50;;;;;;;22.90;5.82;;;6.80;99.90;;;;;;5107121;28;20051;-68
2023/01/30 11:40:24;;;;;;;24.13;5.63;;;6.90;99.90;;;;;;5103075;28;20040;-68
2023/01/30 11:42:57;;;;;;;26.95;6.13;;;6.90;99.90;;;;;;5098182;28;20429;-68
2023/01/30 11:45:25;;;;;;;18.17;4.93;;;6.90;99.90;;;;;;5080732;28;20048;-68
2023/01/30 11:47:58;;;;;;;18.08;5.72;;;6.90;99.90;;;;;;5107725;28;20051;-68
2023/01/30 11:50:37;;;;;;;19.85;5.68;;;6.90;99.90;;;;;;5103388;28;20067;-68
2023/01/30 11:53:12;;;;;;;17.55;4.88;;;7.00;99.90;;;;;;5092770;28;20036;-68
2023/01/30 11:55:38;;;;;;;37.00;7.03;;;7.00;99.90;;;;;;5107746;28;20035;-67
2023/01/30 11:58:08;;;;;;;19.00;6.35;;;7.00;99.90;;;;;;5099898;28;20046;-68
2023/01/30 12:00:47;;;;;;;25.60;6.43;;;7.00;99.90;;;;;;5106986;28;20443;-67
2023/01/30 12:03:18;;;;;;;30.80;5.45;;;7.00;99.90;;;;;;5100910;28;20086;-68
2023/01/30 12:05:46;;;;;;;28.15;5.45;;;7.00;99.90;;;;;;5101131;28;20047;-68
2023/01/30 12:08:20;;;;;;;20.58;5.35;;;7.00;99.90;;;;;;5109000;28;20051;-68
2023/01/30 12:10:50;;;;;;;20.48;4.07;;;7.00;99.90;;;;;;5088550;28;20512;-67
2023/01/30 12:13:37;;;;;;;18.60;4.68;;;7.00;99.90;;;;;;5093813;28;20574;-67
2023/01/30 12:16:17;;;;;;;11.20;3.70;;;7.00;99.90;;;;;;5088118;28;20201;-68
2023/01/30 12:19:22;;;;;;;17.95;3.90;;;7.00;99.90;;;;;;5092630;28;20040;-67
2023/01/30 12:21:58;;;;;;;19.52;5.25;;;7.00;99.90;;;;;;5096854;28;20047;-68
2023/01/30 12:24:36;;;;;;;13.73;3.67;;;7.10;99.90;;;;;;5104014;28;20086;-68
2023/01/30 12:27:25;;;;;;;19.27;4.32;;;7.10;99.90;;;;;;5100074;28;20127;-68
2023/01/30 12:30:21;;;;;;;19.48;4.47;;;7.10;99.90;;;;;;5103869;28;20055;-68
2023/01/30 12:32:47;;;;;;;12.82;4.30;;;7.10;99.90;;;;;;5106207;28;20044;-68
2023/01/30 12:35:16;;;;;;;19.25;5.05;;;7.00;99.90;;;;;;5099711;28;20055;-69
2023/01/30 12:37:48;;;;;;;12.05;4.75;;;7.00;99.90;;;;;;5105630;28;20711;-70
2023/01/30 12:40:14;;;;;;;30.38;18.20;;;7.10;99.90;;;;;;5098902;28;20040;-70
2023/01/30 12:42:59;;;;;;;21.58;7.32;;;7.10;99.90;;;;;;5092328;28;20047;-70
2023/01/30 12:45:32;;;;;;;19.17;7.47;;;7.20;99.90;;;;;;5098707;28;20032;-70
2023/01/30 12:48:24;;;;;;;17.88;4.97;;;7.20;99.90;;;;;;5091394;28;20412;-70
2023/01/30 12:51:04;;;;;;;18.83;6.45;;;7.20;99.90;;;;;;5091515;28;20039;-70
2023/01/30 12:53:42;;;;;;;17.98;4.95;;;7.20;99.90;;;;;;5101310;28;20684;-70
2023/01/30 12:56:25;;;;;;;17.83;5.20;;;7.20;99.90;;;;;;5099914;28;20043;-70
2023/01/30 12:59:00;;;;;;;21.80;6.35;;;7.20;99.90;;;;;;5097656;28;20052;-70
2023/01/30 13:01:47;;;;;;;31.73;8.07;;;7.20;99.90;;;;;;5100559;28;20040;-70
2023/01/30 13:04:37;;;;;;;30.25;7.75;;;7.30;99.90;;;;;;5106214;28;20062;-70
2023/01/30 13:07:29;;;;;;;25.00;5.70;;;7.30;99.90;;;;;;5090245;28;20538;-70
2023/01/30 13:10:14;;;;;;;25.48;7.43;;;7.30;99.90;;;;;;5095947;28;20054;-70
2023/01/30 13:13:06;;;;;;;27.40;6.38;;;7.30;99.90;;;;;;5099782;28;20079;-70
2023/01/30 13:15:58;;;;;;;40.97;18.50;;;7.30;99.90;;;;;;5100653;28;20051;-70